Time;durP1;ratioP1;P1;durP2;ratioP2;P2;SDS_P1;SDS_P2;PMS_P1;PMS_P2;Temp;Humidity;BMP_temperature;BMP_pressure;BME280_temperature;BME280_humidity;BME280_pressure;Samples;Min_cycle;Max_cycle;Signal;HPM_P1;HPM_P2
2023/08/16 00:02:17;;;;;;;5.55;4.30;;;;;;;25.80;44.37;100600.00;5029471;28;20238;-64
2023/08/16 00:04:47;;;;;;;7.80;5.18;;;;;;;25.78;44.65;100603.59;5033279;28;20617;-64
2023/08/16 00:07:15;;;;;;;7.72;4.20;;;;;;;25.78;44.58;100600.09;5033622;28;20226;-64
2023/08/16 00:09:43;;;;;;;7.78;4.53;;;;;;;25.73;44.56;100599.53;5033131;28;20290;-63
2023/08/16 00:12:10;;;;;;;7.95;4.75;;;;;;;25.68;44.66;100601.63;5023814;28;20227;-65
2023/08/16 00:14:39;;;;;;;6.35;4.63;;;;;;;25.64;44.79;100602.78;5025160;28;20310;-64
2023/08/16 00:17:07;;;;;;;6.05;4.55;;;;;;;25.61;45.25;100600.34;5032736;28;20257;-65
2023/08/16 00:19:37;;;;;;;5.95;4.70;;;;;;;25.59;45.62;100600.47;5032884;28;20288;-65
2023/08/16 00:22:06;;;;;;;6.43;4.53;;;;;;;25.54;45.43;100606.00;5032579;28;20234;-65
2023/08/16 00:24:34;;;;;;;6.22;4.80;;;;;;;25.48;45.70;100600.28;5030498;28;21048;-66
2023/08/16 00:27:03;;;;;;;6.47;4.43;;;;;;;25.44;45.61;100593.50;5032763;28;20700;-65
2023/08/16 00:29:30;;;;;;;5.35;4.65;;;;;;;25.41;45.46;100605.13;5033216;28;20704;-65
2023/08/16 00:32:00;;;;;;;7.88;4.07;;;;;;;25.36;45.63;100596.66;5021875;28;20222;-65
2023/08/16 00:34:28;;;;;;;5.50;4.57;;;;;;;25.33;45.58;100594.19;5029851;28;20210;-69
2023/08/16 00:36:56;;;;;;;6.18;4.70;;;;;;;25.29;46.03;100600.63;5023102;28;20208;-65
2023/08/16 00:39:26;;;;;;;6.28;4.32;;;;;;;25.29;45.56;100597.97;5028545;28;20233;-66
2023/08/16 00:41:54;;;;;;;8.18;5.03;;;;;;;25.26;45.90;100598.22;5031808;28;20207;-64
2023/08/16 00:44:22;;;;;;;4.88;4.25;;;;;;;25.19;46.13;100604.81;5032235;28;20202;-64
2023/08/16 00:46:50;;;;;;;5.78;4.68;;;;;;;25.13;46.19;100611.31;5025240;28;20265;-67
2023/08/16 00:49:18;;;;;;;6.32;4.30;;;;;;;25.08;45.84;100594.06;5012817;28;20579;-64
2023/08/16 00:51:46;;;;;;;8.48;4.53;;;;;;;25.04;46.29;100602.16;5018132;28;20580;-65
2023/08/16 00:54:14;;;;;;;7.40;4.78;;;;;;;25.00;46.25;100591.88;5031425;28;20213;-65
2023/08/16 00:56:44;;;;;;;5.80;4.28;;;;;;;24.99;46.22;100590.22;5028134;28;20567;-65
2023/08/16 00:59:12;;;;;;;5.25;4.15;;;;;;;24.97;46.19;100598.22;5023056;28;20198;-65
2023/08/16 01:01:42;;;;;;;9.20;4.45;;;;;;;24.94;45.82;100595.78;5014989;28;20278;-64
2023/08/16 01:04:10;;;;;;;5.18;3.90;;;;;;;24.94;45.95;100590.50;5020985;28;20293;-65
2023/08/16 01:06:38;;;;;;;5.18;3.67;;;;;;;24.92;46.02;100591.53;5023357;28;20207;-64
2023/08/16 01:09:07;;;;;;;6.00;4.05;;;;;;;24.90;45.71;100593.44;5031458;28;20241;-64
2023/08/16 01:11:39;;;;;;;6.80;4.18;;;;;;;24.91;46.02;100595.97;5030915;28;20614;-64
2023/08/16 01:14:14;;;;;;;7.68;4.25;;;;;;;24.90;45.89;100604.81;5031019;28;20701;-64
2023/08/16 01:16:44;;;;;;;6.18;4.35;;;;;;;24.90;45.67;100609.25;5031677;28;20272;-65
2023/08/16 01:19:19;;;;;;;8.40;4.68;;;;;;;24.89;45.94;100607.53;5031760;28;20214;-65
2023/08/16 01:21:54;;;;;;;4.72;4.22;;;;;;;24.89;45.91;100607.53;5031913;28;20565;-68
2023/08/16 01:24:31;;;;;;;5.00;4.50;;;;;;;24.87;46.08;100604.16;5020167;28;20565;-65
2023/08/16 01:27:01;;;;;;;6.20;4.55;;;;;;;24.82;45.90;100597.41;5031891;28;20287;-65
2023/08/16 01:29:30;;;;;;;5.47;4.63;;;;;;;24.77;46.35;100590.69;5031801;28;20199;-66
2023/08/16 01:31:58;;;;;;;6.35;4.88;;;;;;;24.74;46.25;100601.44;5031819;28;20206;-65
2023/08/16 01:34:26;;;;;;;8.02;4.45;;;;;;;24.69;46.31;100600.88;5031286;28;20301;-65
2023/08/16 01:36:54;;;;;;;6.78;4.68;;;;;;;24.64;46.64;100603.81;5031728;28;20925;-65
2023/08/16 01:39:22;;;;;;;5.05;4.47;;;;;;;24.59;46.52;100596.16;5015909;28;20215;-65
2023/08/16 01:41:53;;;;;;;4.95;4.30;;;;;;;24.59;46.44;100606.69;5011668;28;20207;-65
2023/08/16 01:44:25;;;;;;;6.65;4.20;;;;;;;24.57;46.60;100607.75;5025112;28;20728;-65
2023/08/16 01:46:54;;;;;;;7.82;4.63;;;;;;;24.56;46.45;100592.88;5031203;28;20203;-65
2023/08/16 01:49:23;;;;;;;5.30;4.13;;;;;;;24.54;46.72;100598.22;5031031;28;20313;-64
2023/08/16 01:51:51;;;;;;;5.43;4.15;;;;;;;24.52;46.70;100600.13;5030807;28;20238;-64
2023/08/16 01:54:19;;;;;;;5.97;4.20;;;;;;;24.53;46.38;100596.56;5031450;28;20237;-65
2023/08/16 01:56:47;;;;;;;8.25;4.22;;;;;;;24.48;46.51;100590.69;5030863;28;20202;-67
2023/08/16 01:59:15;;;;;;;4.60;4.07;;;;;;;24.48;46.93;100598.59;5031208;28;20203;-65
2023/08/16 02:01:44;;;;;;;9.18;4.43;;;;;;;24.52;46.46;100596.63;5031305;28;20276;-63
2023/08/16 02:04:12;;;;;;;5.65;3.97;;;;;;;24.53;46.08;100591.28;5031009;28;20253;-66
2023/08/16 02:06:40;;;;;;;6.43;3.80;;;;;;;24.55;46.28;100593.81;5030873;28;20372;-65
2023/08/16 02:09:08;;;;;;;6.15;3.67;;;;;;;24.54;46.02;100598.22;5030864;28;20229;-64
2023/08/16 02:11:36;;;;;;;5.82;3.95;;;;;;;24.55;46.27;100599.91;5027697;28;20526;-65
2023/08/16 02:14:04;;;;;;;4.63;3.90;;;;;;;24.55;46.45;100591.16;5029904;28;20248;-67
2023/08/16 02:16:32;;;;;;;5.13;3.95;;;;;;;24.52;46.20;100592.22;5030964;28;20228;-64
2023/08/16 02:19:01;;;;;;;7.68;4.50;;;;;;;24.46;46.60;100595.22;5030912;28;20195;-64
2023/08/16 02:21:29;;;;;;;6.60;3.85;;;;;;;24.41;46.64;100580.63;5031261;28;20288;-65
2023/08/16 02:23:57;;;;;;;5.97;3.92;;;;;;;24.40;46.97;100590.31;5031102;28;20221;-66
2023/08/16 02:26:25;;;;;;;7.35;4.30;;;;;;;24.38;46.69;100580.81;5030672;28;20213;-64
2023/08/16 02:28:53;;;;;;;6.43;4.28;;;;;;;24.36;46.94;100583.50;5030802;28;20702;-66
2023/08/16 02:31:21;;;;;;;8.02;4.82;;;;;;;24.33;46.68;100581.06;5025175;28;20215;-64
2023/08/16 02:33:49;;;;;;;5.78;4.55;;;;;;;24.29;47.11;100579.56;5022854;28;20209;-66
2023/08/16 02:36:18;;;;;;;7.93;4.40;;;;;;;24.27;47.10;100581.44;5030592;28;20198;-64
2023/08/16 02:38:46;;;;;;;9.73;4.18;;;;;;;24.27;46.94;100584.09;5030932;28;20205;-65
2023/08/16 02:41:14;;;;;;;5.53;4.13;;;;;;;24.25;46.77;100576.25;5030894;28;20642;-64
2023/08/16 02:43:42;;;;;;;8.18;3.65;;;;;;;24.26;46.82;100583.22;5030069;28;20214;-65
2023/08/16 02:46:10;;;;;;;5.35;4.28;;;;;;;24.25;47.16;100584.16;5030800;28;20225;-65
2023/08/16 02:48:38;;;;;;;5.95;3.88;;;;;;;24.25;46.92;100586.78;5030970;28;20329;-66
2023/08/16 02:51:05;;;;;;;9.27;4.25;;;;;;;24.25;46.68;100585.94;5030841;28;20210;-63
2023/08/16 02:53:35;;;;;;;6.90;4.57;;;;;;;24.23;46.61;100579.91;5030867;28;20671;-65
2023/08/16 02:56:03;;;;;;;7.85;4.20;;;;;;;24.20;46.74;100582.75;5030546;28;20222;-66
2023/08/16 02:58:31;;;;;;;6.90;4.13;;;;;;;24.18;46.84;100584.63;5030489;28;20209;-66
2023/08/16 03:00:59;;;;;;;7.00;4.03;;;;;;;24.13;46.64;100571.72;5030805;28;20653;-67
2023/08/16 03:03:27;;;;;;;7.28;4.38;;;;;;;24.17;46.83;100575.03;5029230;28;20209;-65
2023/08/16 03:05:55;;;;;;;8.98;4.63;;;;;;;24.15;46.77;100577.72;5030398;28;20213;-65
2023/08/16 03:08:23;;;;;;;5.35;3.95;;;;;;;24.10;46.92;100583.28;5030554;28;20588;-65
2023/08/16 03:10:52;;;;;;;7.28;3.92;;;;;;;24.06;46.89;100581.78;5030201;28;20198;-65
2023/08/16 03:13:20;;;;;;;6.32;4.30;;;;;;;24.06;46.85;100576.50;5016333;28;20208;-67
2023/08/16 03:15:48;;;;;;;6.35;3.90;;;;;;;24.05;46.86;100573.97;5030640;28;20642;-65
2023/08/16 03:18:16;;;;;;;4.60;3.65;;;;;;;24.05;47.08;100573.97;5030605;28;20198;-64
2023/08/16 03:20:44;;;;;;;4.65;4.25;;;;;;;24.07;46.83;100578.19;5016906;28;20272;-64
2023/08/16 03:23:12;;;;;;;8.13;3.97;;;;;;;24.08;46.90;100584.31;5030186;28;20250;-66
2023/08/16 03:25:40;;;;;;;6.35;3.55;;;;;;;24.07;46.72;100583.47;5030539;28;20302;-65
2023/08/16 03:28:09;;;;;;;7.75;4.03;;;;;;;24.08;46.39;100584.31;5024704;28;20288;-66
2023/08/16 03:30:37;;;;;;;7.93;4.05;;;;;;;24.07;46.75;100585.25;5014483;28;20616;-65
2023/08/16 03:33:06;;;;;;;9.88;3.85;;;;;;;24.08;46.90;100589.56;5033381;28;20668;-65
2023/08/16 03:35:35;;;;;;;5.43;4.40;;;;;;;24.07;46.63;100599.25;5018220;28;20214;-68
2023/08/16 03:38:03;;;;;;;6.47;4.32;;;;;;;24.06;46.71;100600.19;5018777;28;20665;-65
2023/08/16 03:40:31;;;;;;;10.23;4.03;;;;;;;24.06;46.71;100602.84;5033983;28;20607;-65
2023/08/16 03:42:59;;;;;;;7.03;4.50;;;;;;;24.04;46.39;100598.59;5033447;28;20231;-64
2023/08/16 03:45:28;;;;;;;8.15;4.03;;;;;;;23.99;46.50;100596.22;5033483;28;20213;-65
2023/08/16 03:47:57;;;;;;;5.88;4.30;;;;;;;23.95;46.63;100599.97;5033484;28;20230;-64
2023/08/16 03:50:25;;;;;;;6.30;4.63;;;;;;;23.92;46.76;100600.16;5033308;28;20215;-65
2023/08/16 03:52:53;;;;;;;8.10;4.53;;;;;;;23.90;46.53;100596.78;5019856;28;20674;-64
2023/08/16 03:55:23;;;;;;;7.65;5.07;;;;;;;23.87;46.67;100602.22;5033425;28;20198;-64
2023/08/16 03:57:51;;;;;;;7.35;4.60;;;;;;;23.83;46.95;100598.91;5033463;28;20214;-66
2023/08/16 04:00:19;;;;;;;8.90;5.28;;;;;;;23.82;47.03;100599.88;5031491;28;20715;-64
2023/08/16 04:02:48;;;;;;;9.02;4.30;;;;;;;23.85;46.91;100615.44;5021381;28;20697;-66
2023/08/16 04:05:17;;;;;;;6.97;4.55;;;;;;;23.85;46.88;100609.34;5018288;28;20234;-65
2023/08/16 04:07:45;;;;;;;8.93;4.90;;;;;;;23.84;46.98;100612.91;5033269;28;20206;-65
2023/08/16 04:10:13;;;;;;;4.88;4.30;;;;;;;23.83;46.85;100612.09;5033214;28;20211;-64
2023/08/16 04:12:41;;;;;;;7.28;4.80;;;;;;;23.80;46.96;100612.25;5023131;28;20260;-65
2023/08/16 04:15:10;;;;;;;8.55;4.43;;;;;;;23.78;47.40;100608.00;5033035;28;20198;-65
2023/08/16 04:17:38;;;;;;;7.10;4.97;;;;;;;23.79;47.25;100618.47;5024760;28;20302;-66
2023/08/16 04:20:10;;;;;;;7.00;5.10;;;;;;;23.79;47.26;100620.25;5028198;28;20713;-69
2023/08/16 04:22:38;;;;;;;8.85;5.28;;;;;;;23.78;47.38;100623.78;5033014;28;20724;-65
2023/08/16 04:25:08;;;;;;;5.90;5.20;;;;;;;23.77;47.47;100628.22;5033061;28;20653;-63
2023/08/16 04:27:36;;;;;;;7.35;5.05;;;;;;;23.80;47.42;100625.41;5029483;28;20246;-65
2023/08/16 04:30:06;;;;;;;8.23;5.18;;;;;;;23.85;47.37;100627.78;5032042;28;20288;-65
2023/08/16 04:32:35;;;;;;;8.45;4.90;;;;;;;23.87;47.64;100633.81;5032901;28;20210;-65
2023/08/16 04:35:03;;;;;;;6.68;4.72;;;;;;;23.84;47.58;100629.56;5024638;28;20207;-66
2023/08/16 04:37:32;;;;;;;7.40;5.03;;;;;;;23.81;47.73;100634.16;5012938;28;20218;-64
2023/08/16 04:40:00;;;;;;;7.80;5.13;;;;;;;23.81;47.88;100635.00;5033067;28;20562;-66
2023/08/16 04:42:30;;;;;;;10.55;5.05;;;;;;;23.85;47.97;100633.88;5032374;28;20245;-64
2023/08/16 04:45:02;;;;;;;11.23;5.32;;;;;;;23.96;47.75;100630.63;5030291;28;20234;-68
2023/08/16 04:47:30;;;;;;;6.65;5.63;;;;;;;24.05;47.50;100631.91;5032447;28;20199;-64
2023/08/16 04:49:58;;;;;;;15.90;6.00;;;;;;;24.17;47.26;100630.31;5018272;28;20206;-65
2023/08/16 04:52:27;;;;;;;13.05;6.63;;;;;;;24.26;46.69;100632.41;5032385;28;20213;-66
2023/08/16 04:54:56;;;;;;;7.93;6.43;;;;;;;24.39;46.66;100630.78;5018166;28;20210;-65
2023/08/16 04:57:24;;;;;;;9.15;6.20;;;;;;;24.47;46.31;100630.31;5022548;28;20674;-66
2023/08/16 04:59:54;;;;;;;11.98;7.43;;;;;;;24.49;46.61;100624.03;5028710;28;20199;-65
2023/08/16 05:02:22;;;;;;;12.80;6.93;;;;;;;24.54;46.39;100626.38;5032091;28;20297;-66
2023/08/16 05:04:49;;;;;;;7.47;6.25;;;;;;;24.65;46.43;100616.03;5031885;28;20217;-65
2023/08/16 05:07:17;;;;;;;11.80;7.47;;;;;;;24.78;45.91;100622.25;5032040;28;20237;-64
2023/08/16 05:09:45;;;;;;;10.68;6.70;;;;;;;24.94;45.23;100616.88;5032317;28;20214;-66
2023/08/16 05:12:15;;;;;;;10.00;5.88;;;;;;;25.08;45.45;100617.81;5028429;28;20241;-67
2023/08/16 05:14:43;;;;;;;9.60;6.57;;;;;;;25.21;44.66;100619.56;5031082;28;20206;-65
2023/08/16 05:17:11;;;;;;;8.27;6.20;;;;;;;25.36;44.42;100623.03;5026978;28;20203;-62
2023/08/16 05:19:38;;;;;;;11.00;6.65;;;;;;;25.54;44.43;100616.56;5023290;28;20198;-63
2023/08/16 05:22:06;;;;;;;6.95;6.20;;;;;;;25.77;43.43;100622.13;5031837;28;20203;-65
2023/08/16 05:24:34;;;;;;;8.50;6.55;;;;;;;26.03;43.10;100623.06;5031799;28;20209;-63
2023/08/16 05:27:02;;;;;;;9.30;6.80;;;;;;;26.29;42.59;100621.34;5031781;28;20206;-66
2023/08/16 05:29:31;;;;;;;11.48;6.65;;;;;;;26.67;41.62;100620.53;5017421;28;20705;-64
2023/08/16 05:31:59;;;;;;;9.10;5.63;;;;;;;27.23;40.47;100613.03;5031794;28;20662;-63
2023/08/16 05:34:27;;;;;;;9.75;5.80;;;;;;;28.16;38.49;100605.28;5031584;28;20650;-63
2023/08/16 05:36:55;;;;;;;9.60;5.70;;;;;;;29.28;36.27;100600.03;5031436;28;20211;-63
2023/08/16 05:39:23;;;;;;;9.35;5.90;;;;;;;30.39;34.77;100586.38;5029868;28;20665;-64
2023/08/16 05:41:52;;;;;;;8.77;5.40;;;;;;;31.12;32.95;100589.75;5019554;28;20213;-62
2023/08/16 05:44:20;;;;;;;9.73;5.32;;;;;;;31.46;32.05;100597.38;5029971;28;20206;-64
2023/08/16 05:46:51;;;;;;;7.35;5.40;;;;;;;31.62;31.98;100597.66;5031046;28;20257;-64
2023/08/16 05:49:19;;;;;;;6.88;5.20;;;;;;;31.61;31.47;100595.16;5031586;28;20210;-64
2023/08/16 05:51:47;;;;;;;8.55;5.13;;;;;;;31.00;31.72;100593.47;5017097;28;20673;-64
2023/08/16 05:54:14;;;;;;;11.05;5.32;;;;;;;30.43;33.29;100597.59;5019313;28;20203;-64
2023/08/16 05:56:42;;;;;;;6.38;4.80;;;;;;;30.88;33.44;100598.06;5028209;28;20201;-63
2023/08/16 05:59:10;;;;;;;8.30;4.88;;;;;;;31.96;31.92;100591.91;5022144;28;20587;-63
2023/08/16 06:01:38;;;;;;;7.30;4.68;;;;;;;33.04;29.26;100585.25;5017116;28;20198;-63
2023/08/16 06:04:08;;;;;;;8.60;5.15;;;;;;;34.10;27.80;100587.09;5022363;28;20578;-65
2023/08/16 06:06:36;;;;;;;6.80;4.95;;;;;;;35.24;26.62;100594.84;5027436;28;20648;-64
2023/08/16 06:09:05;;;;;;;5.85;4.78;;;;;;;36.46;24.56;100580.56;5031323;28;20640;-63
2023/08/16 06:11:33;;;;;;;8.05;5.13;;;;;;;37.41;23.76;100583.13;5027505;28;20696;-65
2023/08/16 06:14:01;;;;;;;8.63;5.15;;;;;;;38.05;23.00;100588.16;5024566;28;20206;-63
2023/08/16 06:16:29;;;;;;;8.23;5.47;;;;;;;38.42;22.06;100589.97;5023990;28;20214;-63
2023/08/16 06:18:57;;;;;;;15.88;6.00;;;;;;;38.52;21.46;100591.56;5030884;28;20211;-64
2023/08/16 06:21:26;;;;;;;14.07;6.07;;;;;;;38.76;21.70;100602.00;5030237;28;20222;-65
2023/08/16 06:23:56;;;;;;;10.95;6.72;;;;;;;39.24;20.53;100615.88;5030282;28;20707;-64
2023/08/16 06:26:24;;;;;;;12.40;6.38;;;;;;;39.71;20.07;100606.41;5029301;28;20581;-68
2023/08/16 06:28:52;;;;;;;12.10;7.22;;;;;;;39.93;20.16;100619.88;5030797;28;20810;-63
2023/08/16 06:31:20;;;;;;;12.15;6.85;;;;;;;40.27;19.89;100617.22;5030526;28;20232;-66
2023/08/16 06:33:48;;;;;;;10.13;6.28;;;;;;;41.23;18.69;100616.44;5019528;28;20602;-65
2023/08/16 06:36:16;;;;;;;11.35;5.72;;;;;;;42.22;17.73;100619.19;5028552;28;20214;-64
2023/08/16 06:38:45;;;;;;;16.58;6.40;;;;;;;42.89;17.13;100619.03;5030752;28;20206;-66
2023/08/16 06:41:14;;;;;;;10.25;5.75;;;;;;;43.41;16.98;100617.06;5030464;28;20206;-64
2023/08/16 06:43:42;;;;;;;12.98;5.50;;;;;;;43.86;16.20;100616.97;5030700;28;20217;-65
2023/08/16 06:46:10;;;;;;;9.10;5.78;;;;;;;44.08;16.14;100612.78;5016762;28;20217;-64
2023/08/16 06:48:38;;;;;;;12.50;6.13;;;;;;;44.48;15.67;100601.50;5024271;28;20216;-64
2023/08/16 06:51:06;;;;;;;10.18;5.85;;;;;;;44.91;15.35;100608.72;5030116;28;20252;-65
2023/08/16 06:53:34;;;;;;;10.77;5.70;;;;;;;45.05;15.17;100604.75;5017241;28;20297;-63
2023/08/16 06:56:03;;;;;;;8.05;5.80;;;;;;;45.06;15.21;100600.16;5030602;28;20214;-65
2023/08/16 06:58:31;;;;;;;11.95;5.70;;;;;;;44.89;15.38;100602.69;5025383;28;20297;-64
2023/08/16 07:00:59;;;;;;;12.30;5.32;;;;;;;45.26;14.97;100602.59;5011169;28;20195;-65
2023/08/16 07:03:28;;;;;;;10.85;5.95;;;;;;;45.92;14.39;100598.81;5030416;28;20264;-67
2023/08/16 07:05:56;;;;;;;7.93;5.45;;;;;;;46.60;13.76;100600.03;5034523;28;20539;-64
2023/08/16 07:08:24;;;;;;;14.25;5.68;;;;;;;47.27;13.46;100604.00;5020137;28;20215;-65
2023/08/16 07:10:54;;;;;;;11.07;5.70;;;;;;;46.67;13.60;100602.63;5034392;28;20233;-65
2023/08/16 07:13:23;;;;;;;10.45;5.72;;;;;;;45.96;14.45;100605.44;5033975;28;20278;-65
2023/08/16 07:15:51;;;;;;;14.25;5.05;;;;;;;45.72;14.61;100603.75;5034314;28;20685;-68
2023/08/16 07:18:19;;;;;;;7.78;4.57;;;;;;;45.19;14.52;100605.41;5033961;28;20304;-64
2023/08/16 07:20:47;;;;;;;11.35;5.10;;;;;;;44.92;15.29;100609.53;5032258;28;20225;-64
2023/08/16 07:23:15;;;;;;;7.88;4.70;;;;;;;45.47;14.59;100604.78;5033998;28;20244;-66
2023/08/16 07:25:43;;;;;;;8.95;4.80;;;;;;;46.41;14.10;100603.97;5034019;28;20206;-64
2023/08/16 07:28:11;;;;;;;13.00;4.45;;;;;;;47.47;12.86;100598.94;5033871;28;20291;-65
2023/08/16 07:30:40;;;;;;;9.10;4.88;;;;;;;48.38;12.22;100593.97;5020121;28;20214;-64
2023/08/16 07:33:08;;;;;;;9.80;4.65;;;;;;;48.64;11.92;100602.50;5020113;28;20206;-65
2023/08/16 07:35:36;;;;;;;11.15;4.78;;;;;;;48.73;12.03;100600.97;5021470;28;20210;-65
2023/08/16 07:38:04;;;;;;;7.32;4.68;;;;;;;48.86;11.56;100600.56;5032862;28;20624;-63
2023/08/16 07:40:32;;;;;;;5.97;4.43;;;;;;;48.96;11.80;100599.03;5033778;28;20213;-63
2023/08/16 07:43:00;;;;;;;10.20;4.88;;;;;;;48.48;12.01;100603.41;5033460;28;20198;-64
2023/08/16 07:45:28;;;;;;;10.93;4.47;;;;;;;48.23;11.88;100601.16;5033555;28;20225;-65
2023/08/16 07:47:58;;;;;;;9.70;4.40;;;;;;;48.07;12.40;100597.41;5033786;28;20206;-65
2023/08/16 07:50:26;;;;;;;6.07;4.10;;;;;;;47.91;12.03;100605.38;5032817;28;20585;-65
2023/08/16 07:52:54;;;;;;;9.52;4.55;;;;;;;47.51;12.30;100599.25;5032798;28;20206;-65
2023/08/16 07:55:23;;;;;;;7.45;4.43;;;;;;;47.48;12.39;100605.22;5033633;28;20657;-64
2023/08/16 07:57:51;;;;;;;11.60;5.20;;;;;;;47.59;12.06;100607.84;5033220;28;20205;-65
2023/08/16 08:00:19;;;;;;;6.15;4.10;;;;;;;48.06;12.32;100601.19;5019373;28;20586;-64
2023/08/16 08:02:48;;;;;;;6.35;4.63;;;;;;;48.54;11.56;100605.13;5033461;28;20687;-64
2023/08/16 08:05:29;;;;;;;6.30;4.30;;;;;;;48.98;11.44;100600.44;5033412;28;20201;-64
2023/08/16 08:07:57;;;;;;;6.57;4.50;;;;;;;49.08;11.61;100608.72;5033446;28;20636;-65
2023/08/16 08:10:25;;;;;;;9.13;4.75;;;;;;;49.05;11.70;100602.94;5032708;28;20202;-65
2023/08/16 08:12:53;;;;;;;7.40;4.78;;;;;;;49.16;11.38;100610.19;5033295;28;20224;-65
2023/08/16 08:15:21;;;;;;;6.43;4.47;;;;;;;49.28;11.38;100607.28;5031841;28;20280;-63
2023/08/16 08:17:49;;;;;;;11.48;4.28;;;;;;;49.30;11.27;100610.59;5033310;28;20584;-65
2023/08/16 08:20:17;;;;;;;4.30;3.88;;;;;;;49.18;11.06;100597.06;5032983;28;20213;-64
2023/08/16 08:22:46;;;;;;;10.82;4.35;;;;;;;49.36;11.04;100603.25;5033231;28;20602;-63
2023/08/16 08:25:14;;;;;;;10.48;4.85;;;;;;;49.52;11.26;100591.34;5032761;28;20210;-65
2023/08/16 08:27:42;;;;;;;5.45;4.03;;;;;;;49.70;10.95;100595.56;5032699;28;20633;-65
2023/08/16 08:30:11;;;;;;;7.43;4.35;;;;;;;49.86;10.44;100591.84;5032760;28;20208;-65
2023/08/16 08:32:39;;;;;;;8.73;4.10;;;;;;;49.90;10.41;100592.13;5030200;28;20261;-65
2023/08/16 08:35:08;;;;;;;7.18;3.92;;;;;;;49.14;11.34;100590.44;5021613;28;20719;-65
2023/08/16 08:37:36;;;;;;;8.25;4.10;;;;;;;47.26;11.87;100592.25;5033016;28;20202;-66
2023/08/16 08:40:06;;;;;;;6.22;4.20;;;;;;;44.74;14.04;100594.09;5026082;28;20293;-65
2023/08/16 08:42:35;;;;;;;8.90;4.25;;;;;;;42.75;16.10;100598.44;5012763;28;20218;-66
2023/08/16 08:45:06;;;;;;;7.97;4.10;;;;;;;41.38;17.24;100591.91;5018952;28;20201;-67
2023/08/16 08:47:35;;;;;;;7.15;4.40;;;;;;;40.54;18.36;100588.50;5029749;28;20297;-64
2023/08/16 08:50:03;;;;;;;5.53;4.90;;;;;;;39.72;19.43;100591.06;5031672;28;20202;-65
2023/08/16 08:52:32;;;;;;;7.70;4.80;;;;;;;39.26;19.85;100592.28;5032525;28;20210;-65
2023/08/16 08:55:00;;;;;;;6.00;4.25;;;;;;;38.94;20.58;100598.09;5031995;28;20248;-66
2023/08/16 08:57:31;;;;;;;7.78;4.45;;;;;;;38.56;20.77;100598.25;5032393;28;20211;-64
2023/08/16 09:00:01;;;;;;;7.53;4.75;;;;;;;38.37;21.22;100591.53;5015334;28;20202;-66
2023/08/16 09:02:33;;;;;;;5.72;5.05;;;;;;;37.82;22.32;100587.38;5022383;28;20202;-66
2023/08/16 09:05:04;;;;;;;9.68;4.32;;;;;;;37.08;23.61;100595.09;5032072;28;20206;-65
2023/08/16 09:07:34;;;;;;;8.45;4.75;;;;;;;36.67;23.82;100587.22;5030860;28;20658;-63
2023/08/16 09:10:02;;;;;;;7.32;4.50;;;;;;;36.72;23.71;100595.59;5031501;28;20294;-68
2023/08/16 09:12:31;;;;;;;11.35;4.90;;;;;;;37.53;22.72;100582.72;5031804;28;20218;-65
2023/08/16 09:14:59;;;;;;;7.15;4.18;;;;;;;38.84;20.72;100583.06;5018109;28;20203;-64
2023/08/16 09:17:28;;;;;;;4.57;3.63;;;;;;;40.07;19.55;100578.44;5025193;28;20203;-64
2023/08/16 09:19:59;;;;;;;6.85;4.05;;;;;;;40.55;18.72;100567.72;5025988;28;20665;-65
2023/08/16 09:22:29;;;;;;;7.93;3.90;;;;;;;40.73;18.03;100573.44;5018641;28;20235;-65
2023/08/16 09:24:58;;;;;;;5.72;4.05;;;;;;;40.88;18.37;100570.56;5031758;28;20719;-65
2023/08/16 09:27:26;;;;;;;6.50;4.47;;;;;;;41.22;18.86;100577.75;5031683;28;20230;-64
2023/08/16 09:29:55;;;;;;;6.30;4.50;;;;;;;41.01;18.24;100572.50;5032030;28;20206;-63
2023/08/16 09:32:27;;;;;;;7.25;4.03;;;;;;;40.59;19.00;100587.94;5031513;28;20241;-64
2023/08/16 09:34:57;;;;;;;8.18;4.22;;;;;;;40.75;18.80;100576.75;5019205;28;20654;-67
2023/08/16 09:37:31;;;;;;;5.65;4.15;;;;;;;41.38;18.43;100575.69;5030104;28;20210;-66
2023/08/16 09:39:59;;;;;;;6.88;4.50;;;;;;;41.79;17.65;100578.19;5031355;28;20214;-64
2023/08/16 09:42:33;;;;;;;5.63;3.80;;;;;;;41.72;18.46;100578.22;5031530;28;20285;-65
2023/08/16 09:45:04;;;;;;;9.63;4.05;;;;;;;41.30;18.13;100584.00;5017713;28;20682;-71
2023/08/16 09:47:32;;;;;;;7.22;4.32;;;;;;;40.95;18.49;100576.84;5031939;28;20568;-65
2023/08/16 09:50:08;;;;;;;4.38;3.97;;;;;;;40.62;18.32;100571.31;5031759;28;20277;-64
2023/08/16 09:52:37;;;;;;;9.50;3.83;;;;;;;40.42;18.71;100573.06;5019401;28;20276;-64
2023/08/16 09:55:07;;;;;;;7.40;4.15;;;;;;;40.22;18.61;100570.25;5030314;28;20202;-64
2023/08/16 09:57:36;;;;;;;9.77;4.40;;;;;;;39.75;19.44;100574.47;5031624;28;20605;-66
2023/08/16 10:00:07;;;;;;;10.48;4.22;;;;;;;39.96;19.50;100584.41;5031161;28;20198;-63
2023/08/16 10:02:36;;;;;;;7.50;4.07;;;;;;;40.54;18.64;100577.69;5031265;28;20257;-64
2023/08/16 10:05:08;;;;;;;5.63;4.07;;;;;;;40.95;17.76;100582.25;5017766;28;20701;-64
2023/08/16 10:07:37;;;;;;;8.27;4.00;;;;;;;41.13;17.69;100579.00;5028053;28;20569;-64
2023/08/16 10:10:09;;;;;;;11.27;4.63;;;;;;;41.64;17.32;100572.19;5030888;28;20206;-65
2023/08/16 10:12:38;;;;;;;4.45;3.90;;;;;;;42.30;17.03;100574.81;5031336;28;20246;-65
2023/08/16 10:15:08;;;;;;;6.65;3.83;;;;;;;42.71;16.18;100579.06;5031338;28;20649;-65
2023/08/16 10:17:39;;;;;;;6.03;3.70;;;;;;;42.78;16.48;100581.75;5023095;28;20599;-65
2023/08/16 10:20:15;;;;;;;8.65;3.83;;;;;;;42.73;16.58;100582.41;5025023;28;20305;-66
2023/08/16 10:22:48;;;;;;;8.57;4.35;;;;;;;42.78;16.34;100582.59;5019953;28;20691;-66
2023/08/16 10:25:23;;;;;;;6.95;4.25;;;;;;;42.59;17.07;100573.47;5029452;28;20209;-64
2023/08/16 10:27:55;;;;;;;7.45;4.95;;;;;;;42.88;16.61;100576.69;5029874;28;20245;-66
2023/08/16 10:30:25;;;;;;;6.40;4.22;;;;;;;43.45;16.01;100576.75;5031273;28;20550;-65
2023/08/16 10:32:58;;;;;;;8.90;3.95;;;;;;;44.10;15.26;100579.97;5030613;28;20308;-65
2023/08/16 10:35:27;;;;;;;5.97;3.97;;;;;;;44.53;15.59;100579.91;5019856;28;20211;-65
2023/08/16 10:37:57;;;;;;;4.80;4.22;;;;;;;44.39;15.40;100583.03;5032429;28;20209;-65
2023/08/16 10:40:25;;;;;;;5.97;4.70;;;;;;;44.34;15.85;100578.28;5025012;28;20293;-67
2023/08/16 10:42:57;;;;;;;6.25;3.30;;;;;;;44.17;14.80;100579.91;5031309;28;20205;-65
2023/08/16 10:45:28;;;;;;;7.65;3.47;;;;;;;43.29;15.86;100580.84;5025440;28;20253;-64
2023/08/16 10:48:08;;;;;;;4.78;3.35;;;;;;;42.22;15.88;100580.44;5031281;28;20213;-69
2023/08/16 10:50:37;;;;;;;3.92;3.03;;;;;;;41.25;16.69;100577.34;5024803;28;20214;-64
2023/08/16 10:53:06;;;;;;;7.68;3.75;;;;;;;40.31;17.66;100575.28;5030899;28;20261;-64
2023/08/16 10:55:34;;;;;;;5.05;3.15;;;;;;;39.58;18.61;100579.28;5034764;28;20202;-63
2023/08/16 10:58:02;;;;;;;4.68;3.20;;;;;;;39.21;18.91;100578.47;5034457;28;20293;-64
2023/08/16 11:00:33;;;;;;;5.57;3.15;;;;;;;39.08;19.25;100583.75;5034754;28;20225;-65
2023/08/16 11:03:04;;;;;;;6.95;3.53;;;;;;;38.95;19.42;100580.91;5034699;28;20210;-67
2023/08/16 11:05:34;;;;;;;3.67;3.38;;;;;;;38.40;19.76;100581.22;5033569;28;20202;-67
2023/08/16 11:08:03;;;;;;;4.07;3.22;;;;;;;37.79;20.96;100588.56;5034361;28;20206;-66
2023/08/16 11:10:36;;;;;;;5.60;3.92;;;;;;;37.36;21.18;100585.50;5020381;28;20245;-66
2023/08/16 11:13:09;;;;;;;4.85;3.67;;;;;;;36.88;22.40;100584.75;5034038;28;20222;-67
2023/08/16 11:15:39;;;;;;;8.93;4.05;;;;;;;36.51;22.90;100583.59;5020481;28;20206;-66
2023/08/16 11:18:08;;;;;;;5.82;3.70;;;;;;;36.12;23.28;100588.84;5034075;28;20211;-66
2023/08/16 11:20:39;;;;;;;8.55;4.03;;;;;;;35.88;23.30;100592.38;5034112;28;20658;-65
2023/08/16 11:23:07;;;;;;;7.18;3.70;;;;;;;35.73;23.48;100592.22;5033270;28;20213;-66
2023/08/16 11:25:35;;;;;;;7.80;3.55;;;;;;;35.56;23.67;100591.38;5019818;28;20199;-65
2023/08/16 11:28:04;;;;;;;6.28;3.55;;;;;;;35.40;24.45;100599.38;5033910;28;20236;-65
2023/08/16 11:30:32;;;;;;;8.23;4.38;;;;;;;35.36;24.68;100583.81;5033988;28;20215;-64
2023/08/16 11:33:02;;;;;;;6.78;3.65;;;;;;;35.30;24.46;100587.97;5033812;28;20688;-67